createdAt,value
2023-02-06T00:00:48.289Z,102457.19
2023-02-06T00:03:15.265Z,102463.31
2023-02-06T00:05:41.868Z,102466.81
2023-02-06T00:08:08.487Z,102476.38
2023-02-06T00:10:35.248Z,102474.53
2023-02-06T00:13:01.833Z,102487.59
2023-02-06T00:15:28.422Z,102480.59
2023-02-06T00:17:55.009Z,102490.19
2023-02-06T00:20:21.700Z,102489.22
2023-02-06T00:22:48.248Z,102483.97
2023-02-06T00:25:14.817Z,102497.91
2023-02-06T00:27:41.502Z,102509.19
2023-02-06T00:30:08.408Z,102508.38
2023-02-06T00:32:35.273Z,102507.47
2023-02-06T00:35:01.950Z,102507.38
2023-02-06T00:37:28.526Z,102500.34
2023-02-06T00:39:55.114Z,102502.06
2023-02-06T00:42:21.674Z,102507.31
2023-02-06T00:44:48.247Z,102513.28
2023-02-06T00:47:14.819Z,102515.91
2023-02-06T00:49:41.457Z,102506.22
2023-02-06T00:52:08.046Z,102501.91
2023-02-06T00:54:34.602Z,102491.47
2023-02-06T00:57:01.166Z,102498.56
2023-02-06T00:59:27.729Z,102487.25
2023-02-06T01:01:54.382Z,102491.56
2023-02-06T01:04:21.088Z,102491.56
2023-02-06T01:06:47.675Z,102489.78
2023-02-06T01:09:14.230Z,102494.09
2023-02-06T01:11:40.796Z,102489.59
2023-02-06T01:14:07.357Z,102496.44
2023-02-06T01:16:33.920Z,102495.56
2023-02-06T01:19:00.499Z,102499.03
2023-02-06T01:21:27.067Z,102497.22
2023-02-06T01:23:54.873Z,102502.28
2023-02-06T01:26:26.685Z,102503.94
2023-02-06T01:28:54.296Z,102505.69
2023-02-06T01:31:24.066Z,102519.44
2023-02-06T01:33:52.156Z,102510.69
2023-02-06T01:36:20.790Z,102502.81
2023-02-06T01:38:48.542Z,102506.31
2023-02-06T01:41:16.940Z,102498.56
2023-02-06T01:43:46.582Z,102492.50
2023-02-06T01:46:13.608Z,102501.22
2023-02-06T01:48:47.688Z,102501.13
2023-02-06T01:51:19.708Z,102496.63
2023-02-06T01:53:50.663Z,102499.16
2023-02-06T01:56:19.647Z,102500.00
2023-02-06T01:58:50.004Z,102499.91
2023-02-06T02:01:17.073Z,102491.13
2023-02-06T02:03:47.725Z,102484.91
2023-02-06T02:06:18.945Z,102486.53
2023-02-06T02:08:50.037Z,102487.22
2023-02-06T02:11:43.279Z,102481.69
2023-02-06T02:14:12.426Z,102489.31
2023-02-06T02:16:57.114Z,102485.56
2023-02-06T02:19:32.902Z,102473.34
2023-02-06T02:22:18.486Z,102476.75
2023-02-06T02:25:18.741Z,102470.66
2023-02-06T02:28:19.375Z,102485.47
2023-02-06T02:31:08.558Z,102470.69
2023-02-06T02:34:11.949Z,102494.28
2023-02-06T02:37:10.721Z,102491.69
2023-02-06T02:39:40.568Z,102489.13
2023-02-06T02:42:19.025Z,102496.25
2023-02-06T02:45:40.634Z,102489.47
2023-02-06T02:48:23.247Z,102506.00
2023-02-06T02:50:50.742Z,102497.34
2023-02-06T02:53:17.524Z,102502.44
2023-02-06T02:55:44.186Z,102505.91
2023-02-06T02:58:15.045Z,102506.78
2023-02-06T03:00:47.519Z,102505.13
2023-02-06T03:03:15.786Z,102511.28
2023-02-06T03:06:05.113Z,102506.16
2023-02-06T03:08:38.501Z,102505.41
2023-02-06T03:11:17.397Z,102508.09
2023-02-06T03:14:02.508Z,102507.31
2023-02-06T03:16:38.014Z,102514.13
2023-02-06T03:19:15.185Z,102503.44
2023-02-06T03:21:43.463Z,102505.00
2023-02-06T03:24:19.352Z,102519.66
2023-02-06T03:26:49.167Z,102509.09
2023-02-06T03:29:17.831Z,102503.88
2023-02-06T03:31:49.736Z,102505.59
2023-02-06T03:34:31.341Z,102510.81
2023-02-06T03:36:58.062Z,102510.75
2023-02-06T03:39:24.709Z,102521.16
2023-02-06T03:41:52.895Z,102515.13
2023-02-06T03:44:24.762Z,102514.22
2023-02-06T03:46:55.710Z,102516.03
2023-02-06T03:49:26.891Z,102509.09
2023-02-06T03:52:06.105Z,102512.56
2023-02-06T03:54:35.886Z,102517.84
2023-02-06T03:57:05.371Z,102514.41
2023-02-06T03:59:32.494Z,102517.09
2023-02-06T04:02:02.955Z,102514.56
2023-02-06T04:04:34.976Z,102514.63
2023-02-06T04:07:15.774Z,102505.94
2023-02-06T04:09:42.333Z,102502.47
2023-02-06T04:12:09.306Z,102502.38
2023-02-06T04:14:36.895Z,102494.59
2023-02-06T04:17:06.854Z,102502.44
2023-02-06T04:19:34.279Z,102501.63
2023-02-06T04:22:02.104Z,102506.09
2023-02-06T04:24:30.854Z,102510.47
2023-02-06T04:26:57.636Z,102507.94
2023-02-06T04:29:24.183Z,102507.84
2023-02-06T04:31:51.233Z,102511.13
2023-02-06T04:34:18.135Z,102511.75
2023-02-06T04:36:44.774Z,102505.59
2023-02-06T04:39:11.353Z,102513.47
2023-02-06T04:41:37.920Z,102512.81
2023-02-06T04:44:04.620Z,102520.81
2023-02-06T04:46:31.407Z,102512.16
2023-02-06T04:48:57.959Z,102518.34
2023-02-06T04:51:24.585Z,102514.84
2023-02-06T04:53:51.128Z,102520.84
2023-02-06T04:56:17.764Z,102526.97
2023-02-06T04:58:44.363Z,102522.63
2023-02-06T05:01:11.391Z,102513.13
2023-02-06T05:03:38.048Z,102513.16
2023-02-06T05:06:05.497Z,102512.31
2023-02-06T05:08:32.035Z,102523.69
2023-02-06T05:10:58.661Z,102527.13
2023-02-06T05:13:25.505Z,102534.88
2023-02-06T05:15:52.140Z,102534.88
2023-02-06T05:18:19.068Z,102529.59
2023-02-06T05:20:45.711Z,102525.19
2023-02-06T05:23:12.311Z,102522.56
2023-02-06T05:25:40.796Z,102521.66
2023-02-06T05:28:08.825Z,102519.84
2023-02-06T05:30:36.152Z,102524.16
2023-02-06T05:33:02.797Z,102531.97
2023-02-06T05:35:29.666Z,102529.34
2023-02-06T05:37:57.519Z,102531.94
2023-02-06T05:40:24.585Z,102531.09
2023-02-06T05:42:51.318Z,102529.44
2023-02-06T05:45:18.034Z,102526.84
2023-02-06T05:47:44.685Z,102532.13
2023-02-06T05:50:11.232Z,102547.88
2023-02-06T05:52:37.813Z,102540.03
2023-02-06T05:55:04.820Z,102535.72
2023-02-06T05:57:31.414Z,102535.78
2023-02-06T05:59:58.036Z,102531.50
2023-02-06T06:02:24.610Z,102537.63
2023-02-06T06:04:51.345Z,102536.78
2023-02-06T06:07:17.971Z,102531.47
2023-02-06T06:09:44.528Z,102528.03
2023-02-06T06:12:11.106Z,102529.00
2023-02-06T06:14:37.780Z,102528.19
2023-02-06T06:17:04.408Z,102533.41
2023-02-06T06:19:31.029Z,102530.88
2023-02-06T06:21:58.399Z,102536.13
2023-02-06T06:24:26.443Z,102529.22
2023-02-06T06:26:53.332Z,102528.31
2023-02-06T06:29:19.932Z,102529.31
2023-02-06T06:31:46.698Z,102527.66
2023-02-06T06:34:13.266Z,102522.53
2023-02-06T06:36:39.854Z,102526.19
2023-02-06T06:39:06.412Z,102531.50
2023-02-06T06:41:33.475Z,102527.31
2023-02-06T06:44:00.775Z,102525.69
2023-02-06T06:46:27.373Z,102528.41
2023-02-06T06:48:53.943Z,102531.19
2023-02-06T06:51:21.116Z,102531.28
2023-02-06T06:53:47.724Z,102529.53
2023-02-06T06:56:15.183Z,102534.00
2023-02-06T06:58:42.324Z,102528.88
2023-02-06T07:01:09.462Z,102527.19
2023-02-06T07:03:36.737Z,102529.03
2023-02-06T07:06:05.322Z,102527.34
2023-02-06T07:08:31.925Z,102524.88
2023-02-06T07:10:58.536Z,102531.94
2023-02-06T07:13:25.301Z,102519.81
2023-02-06T07:15:51.929Z,102525.19
2023-02-06T07:18:18.518Z,102529.63
2023-02-06T07:20:45.152Z,102535.00
2023-02-06T07:23:11.776Z,102535.97
2023-02-06T07:25:38.571Z,102528.16
2023-02-06T07:28:05.416Z,102532.66
2023-02-06T07:30:32.038Z,102536.31
2023-02-06T07:32:58.671Z,102535.59
2023-02-06T07:35:25.475Z,102535.00
2023-02-06T07:37:55.168Z,102531.66
2023-02-06T07:40:22.124Z,102533.56
2023-02-06T07:42:48.711Z,102536.44
2023-02-06T07:45:15.655Z,102536.69
2023-02-06T07:47:42.829Z,102528.22
2023-02-06T07:50:10.192Z,102530.19
2023-02-06T07:52:37.403Z,102534.78
2023-02-06T07:55:04.521Z,102529.66
2023-02-06T07:57:31.559Z,102520.28
2023-02-06T07:59:58.167Z,102526.63
2023-02-06T08:02:24.991Z,102527.75
2023-02-06T08:04:51.549Z,102517.44
2023-02-06T08:07:18.336Z,102519.41
2023-02-06T08:09:45.095Z,102512.63
2023-02-06T08:12:12.140Z,102506.78
2023-02-06T08:14:39.196Z,102503.44
2023-02-06T08:17:05.979Z,102500.06
2023-02-06T08:19:32.562Z,102513.34
2023-02-06T08:21:59.147Z,102509.06
2023-02-06T08:24:25.778Z,102509.16
2023-02-06T08:26:52.395Z,102515.38
2023-02-06T08:29:19.121Z,102517.16
2023-02-06T08:31:46.074Z,102505.72
2023-02-06T08:34:15.092Z,102509.22
2023-02-06T08:36:43.566Z,102510.09
2023-02-06T08:39:13.353Z,102503.88
2023-02-06T08:41:41.309Z,102497.63
2023-02-06T08:44:11.899Z,102498.44
2023-02-06T08:46:39.773Z,102493.94
2023-02-06T08:49:11.338Z,102498.25
2023-02-06T08:51:37.942Z,102487.56
2023-02-06T08:54:07.411Z,102490.03
2023-02-06T08:56:35.518Z,102485.44
2023-02-06T08:59:02.938Z,102488.78
2023-02-06T09:01:32.002Z,102484.09
2023-02-06T09:04:01.067Z,102477.63
2023-02-06T09:06:28.387Z,102487.88
2023-02-06T09:08:56.963Z,102480.38
2023-02-06T09:11:25.537Z,102483.53
2023-02-06T09:13:57.990Z,102480.59
2023-02-06T09:16:26.016Z,102479.22
2023-02-06T09:18:56.257Z,102495.47
2023-02-06T09:21:24.991Z,102489.66
2023-02-06T09:23:53.925Z,102492.66
2023-02-06T09:26:24.160Z,102498.28
2023-02-06T09:28:54.673Z,102480.69
2023-02-06T09:31:21.235Z,102479.97
2023-02-06T09:33:47.781Z,102472.09
2023-02-06T09:36:17.250Z,102473.81
2023-02-06T09:38:47.069Z,102470.59
2023-02-06T09:41:25.300Z,102472.88
2023-02-06T09:43:54.667Z,102474.78
2023-02-06T09:46:28.137Z,102465.72
2023-02-06T09:48:59.009Z,102467.56
2023-02-06T09:51:52.165Z,102462.16
2023-02-06T09:54:31.457Z,102460.66
2023-02-06T09:57:21.654Z,102461.25
2023-02-06T09:59:56.362Z,102454.84
2023-02-06T10:02:25.948Z,102451.56
2023-02-06T10:04:58.640Z,102445.72
2023-02-06T10:08:03.245Z,102439.13
2023-02-06T10:10:55.614Z,102445.16
2023-02-06T10:13:36.200Z,102429.75
2023-02-06T10:16:28.085Z,102429.06
2023-02-06T10:19:00.917Z,102421.88
2023-02-06T10:21:43.511Z,102421.19
2023-02-06T10:24:22.325Z,102424.66
2023-02-06T10:26:51.934Z,102423.53
2023-02-06T10:29:24.935Z,102425.56
2023-02-06T10:32:15.917Z,102429.03
2023-02-06T10:35:01.103Z,102421.31
2023-02-06T10:37:50.504Z,102417.00
2023-02-06T10:40:28.611Z,102416.41
2023-02-06T10:42:59.632Z,102414.53
2023-02-06T10:46:00.104Z,102402.97
2023-02-06T10:48:34.552Z,102396.44
2023-02-06T10:51:16.236Z,102396.56
2023-02-06T10:53:54.650Z,102380.56
2023-02-06T10:56:26.526Z,102386.63
2023-02-06T10:59:00.281Z,102384.69
2023-02-06T11:01:34.455Z,102380.03
2023-02-06T11:04:15.526Z,102380.34
2023-02-06T11:06:43.051Z,102380.44
2023-02-06T11:09:10.359Z,102375.56
2023-02-06T11:11:41.727Z,102374.81
2023-02-06T11:14:17.564Z,102364.97
2023-02-06T11:16:46.027Z,102371.34
2023-02-06T11:19:25.385Z,102370.28
2023-02-06T11:22:08.645Z,102362.13
2023-02-06T11:24:39.126Z,102366.16
2023-02-06T11:27:20.525Z,102360.28
2023-02-06T11:29:51.968Z,102361.84
2023-02-06T11:33:02.535Z,102353.91
2023-02-06T11:35:30.457Z,102345.50
2023-02-06T11:38:31.753Z,102344.03
2023-02-06T11:41:05.938Z,102336.16
2023-02-06T11:43:54.375Z,102338.50
2023-02-06T11:46:29.763Z,102329.31
2023-02-06T11:48:56.305Z,102318.91
2023-02-06T11:51:24.290Z,102321.59
2023-02-06T11:53:59.212Z,102329.31
2023-02-06T11:56:26.515Z,102313.06
2023-02-06T11:59:06.034Z,102322.56
2023-02-06T12:01:45.114Z,102325.06
2023-02-06T12:04:25.098Z,102313.09
2023-02-06T12:07:19.733Z,102326.31
2023-02-06T12:09:46.307Z,102316.59
2023-02-06T12:12:25.632Z,102315.72
2023-02-06T12:15:36.276Z,102304.94
2023-02-06T12:18:02.860Z,102298.56
2023-02-06T12:20:35.104Z,102297.63
2023-02-06T12:23:20.573Z,102297.25
2023-02-06T12:25:52.735Z,102285.88
2023-02-06T12:28:47.521Z,102295.59
2023-02-06T12:31:21.898Z,102286.78
2023-02-06T12:33:55.270Z,102288.13
2023-02-06T12:36:25.789Z,102285.28
2023-02-06T12:39:05.681Z,102280.66
2023-02-06T12:41:40.876Z,102281.78
2023-02-06T12:44:16.635Z,102285.09
2023-02-06T12:46:45.212Z,102288.41
2023-02-06T12:49:20.001Z,102288.56
2023-02-06T12:51:52.435Z,102291.75
2023-02-06T12:54:28.542Z,102293.88
2023-02-06T12:57:04.181Z,102289.09
2023-02-06T12:59:58.977Z,102294.94
2023-02-06T13:02:52.958Z,102278.88
2023-02-06T13:05:25.238Z,102283.34
2023-02-06T13:07:55.312Z,102285.59
2023-02-06T13:10:26.444Z,102297.28
2023-02-06T13:12:55.474Z,102297.03
2023-02-06T13:15:25.043Z,102300.44
2023-02-06T13:17:51.877Z,102300.59
2023-02-06T13:20:20.433Z,102290.34
2023-02-06T13:22:50.087Z,102297.41
2023-02-06T13:25:25.759Z,102286.13
2023-02-06T13:27:53.945Z,102288.09
2023-02-06T13:30:29.598Z,102292.28
2023-02-06T13:33:17.649Z,102287.19
2023-02-06T13:36:00.053Z,102281.06
2023-02-06T13:38:28.583Z,102286.00
2023-02-06T13:41:15.456Z,102280.09
2023-02-06T13:43:55.632Z,102286.31
2023-02-06T13:46:29.338Z,102282.56
2023-02-06T13:49:47.935Z,102280.06
2023-02-06T13:52:14.492Z,102278.00
2023-02-06T13:54:56.277Z,102287.97
2023-02-06T13:57:43.952Z,102290.00
2023-02-06T14:00:28.840Z,102297.13
2023-02-06T14:03:06.583Z,102292.03
2023-02-06T14:06:02.178Z,102308.09
2023-02-06T14:09:08.803Z,102312.31
2023-02-06T14:11:38.109Z,102299.59
2023-02-06T14:14:14.755Z,102305.47
2023-02-06T14:17:16.891Z,102312.94
2023-02-06T14:19:48.223Z,102308.97
2023-02-06T14:22:42.758Z,102317.34
2023-02-06T14:25:14.522Z,102310.09
2023-02-06T14:28:02.399Z,102313.47
2023-02-06T14:30:38.490Z,102321.06
2023-02-06T14:33:23.563Z,102323.66
2023-02-06T14:36:25.145Z,102320.41
2023-02-06T14:39:41.513Z,102333.09
2023-02-06T14:42:24.334Z,102328.91
2023-02-06T14:45:13.800Z,102333.28
2023-02-06T14:47:43.202Z,102329.88
2023-02-06T14:50:18.706Z,102324.69
2023-02-06T14:52:49.556Z,102326.94
2023-02-06T14:55:43.464Z,102325.59
2023-02-06T14:58:27.475Z,102331.72
2023-02-06T15:00:56.176Z,102337.63
2023-02-06T15:03:27.144Z,102335.34
2023-02-06T15:06:10.115Z,102332.72
2023-02-06T15:08:36.802Z,102346.69
2023-02-06T15:11:06.996Z,102355.56
2023-02-06T15:13:35.398Z,102355.69
2023-02-06T15:16:12.721Z,102356.34
2023-02-06T15:18:39.328Z,102365.56
2023-02-06T15:21:12.307Z,102363.94
2023-02-06T15:23:50.760Z,102366.94
2023-02-06T15:26:35.477Z,102371.28
2023-02-06T15:29:05.201Z,102369.91
2023-02-06T15:31:32.310Z,102364.94
2023-02-06T15:34:01.238Z,102362.31
2023-02-06T15:36:39.200Z,102370.50
2023-02-06T15:39:09.588Z,102371.13
2023-02-06T15:41:37.069Z,102368.22
2023-02-06T15:44:32.198Z,102376.22
2023-02-06T15:47:01.148Z,102385.28
2023-02-06T15:49:41.497Z,102388.94
2023-02-06T15:52:08.402Z,102389.41
2023-02-06T15:54:35.002Z,102390.56
2023-02-06T15:57:07.783Z,102398.66
2023-02-06T15:59:37.263Z,102406.03
2023-02-06T16:02:04.475Z,102400.53
2023-02-06T16:04:37.054Z,102405.09
2023-02-06T16:07:06.719Z,102418.53
2023-02-06T16:09:40.906Z,102428.44
2023-02-06T16:12:08.420Z,102431.38
2023-02-06T16:14:38.033Z,102437.88
2023-02-06T16:17:13.716Z,102434.53
2023-02-06T16:19:47.878Z,102436.50
2023-02-06T16:22:23.731Z,102433.16
2023-02-06T16:24:53.343Z,102432.38
2023-02-06T16:27:26.117Z,102427.94
2023-02-06T16:29:57.413Z,102434.19
2023-02-06T16:32:29.969Z,102435.00
2023-02-06T16:34:56.563Z,102437.75
2023-02-06T16:37:26.219Z,102439.69
2023-02-06T16:39:53.533Z,102439.84
2023-02-06T16:42:34.755Z,102443.41
2023-02-06T16:45:08.205Z,102447.06
2023-02-06T16:47:34.844Z,102447.91
2023-02-06T16:50:01.566Z,102453.25
2023-02-06T16:52:31.413Z,102452.53
2023-02-06T16:54:59.266Z,102456.06
2023-02-06T16:57:38.174Z,102464.06
2023-02-06T17:00:26.618Z,102468.47
2023-02-06T17:02:54.174Z,102460.50
2023-02-06T17:05:23.179Z,102467.59
2023-02-06T17:07:50.869Z,102458.84
2023-02-06T17:10:23.975Z,102461.56
2023-02-06T17:12:50.911Z,102465.09
2023-02-06T17:15:19.158Z,102464.25
2023-02-06T17:17:46.270Z,102465.16
2023-02-06T17:20:32.726Z,102459.88
2023-02-06T17:22:59.814Z,102463.44
2023-02-06T17:25:26.544Z,102460.81
2023-02-06T17:27:53.844Z,102468.75
2023-02-06T17:30:22.966Z,102463.47
2023-02-06T17:32:49.771Z,102466.13
2023-02-06T17:35:16.985Z,102456.50
2023-02-06T17:37:43.857Z,102459.97
2023-02-06T17:40:28.762Z,102462.66
2023-02-06T17:42:56.373Z,102460.00
2023-02-06T17:45:23.022Z,102462.66
2023-02-06T17:47:50.151Z,102461.78
2023-02-06T17:50:22.099Z,102461.78
2023-02-06T17:52:48.924Z,102476.72
2023-02-06T17:55:16.698Z,102475.84
2023-02-06T17:57:43.393Z,102469.72
2023-02-06T18:00:14.783Z,102467.94
2023-02-06T18:02:43.015Z,102471.44
2023-02-06T18:05:09.781Z,102476.72
2023-02-06T18:07:38.534Z,102481.09
2023-02-06T18:10:06.486Z,102488.16
2023-02-06T18:12:33.073Z,102491.66
2023-02-06T18:14:59.990Z,102482.88
2023-02-06T18:17:26.596Z,102485.50
2023-02-06T18:19:53.165Z,102489.03
2023-02-06T18:22:22.056Z,102496.06
2023-02-06T18:24:50.035Z,102497.78
2023-02-06T18:27:18.560Z,102496.03
2023-02-06T18:29:50.156Z,102501.28
2023-02-06T18:32:18.088Z,102489.00
2023-02-06T18:34:44.821Z,102492.50
2023-02-06T18:37:11.461Z,102492.50
2023-02-06T18:39:38.709Z,102492.50
2023-02-06T18:42:24.117Z,102497.75
2023-02-06T18:44:50.686Z,102498.63
2023-02-06T18:47:18.837Z,102503.00
2023-02-06T18:49:45.576Z,102507.41
2023-02-06T18:52:12.401Z,102501.22
2023-02-06T18:54:39.538Z,102510.88
2023-02-06T18:57:06.699Z,102504.72
2023-02-06T18:59:33.928Z,102510.81
2023-02-06T19:02:00.806Z,102510.78
2023-02-06T19:04:27.644Z,102508.13
2023-02-06T19:06:54.357Z,102515.13
2023-02-06T19:09:20.984Z,102525.63
2023-02-06T19:11:48.170Z,102522.94
2023-02-06T19:14:17.147Z,102531.66
2023-02-06T19:16:49.030Z,102524.56
2023-02-06T19:19:15.784Z,102521.03
2023-02-06T19:21:44.256Z,102522.75
2023-02-06T19:24:13.932Z,102529.72
2023-02-06T19:26:40.905Z,102534.03
2023-02-06T19:29:07.965Z,102534.03
2023-02-06T19:31:36.076Z,102541.00
2023-02-06T19:34:02.850Z,102542.75
2023-02-06T19:36:30.504Z,102542.72
2023-02-06T19:39:02.854Z,102549.72
2023-02-06T19:41:31.562Z,102554.00
2023-02-06T19:44:02.478Z,102553.09
2023-02-06T19:46:29.100Z,102561.78
2023-02-06T19:48:55.891Z,102566.97
2023-02-06T19:51:31.453Z,102569.47
2023-02-06T19:53:59.429Z,102580.00
2023-02-06T19:56:34.576Z,102577.31
2023-02-06T19:59:03.656Z,102586.03
2023-02-06T20:01:31.259Z,102578.94
2023-02-06T20:04:00.174Z,102588.47
2023-02-06T20:06:28.632Z,102589.16
2023-02-06T20:08:57.107Z,102583.84
2023-02-06T20:11:23.975Z,102588.25
2023-02-06T20:13:52.215Z,102597.94
2023-02-06T20:16:24.909Z,102594.50
2023-02-06T20:18:52.062Z,102601.63
2023-02-06T20:21:39.072Z,102600.84
2023-02-06T20:24:10.249Z,102600.88
2023-02-06T20:26:39.100Z,102604.44
2023-02-06T20:29:07.641Z,102610.56
2023-02-06T20:31:35.987Z,102614.13
2023-02-06T20:34:03.116Z,102608.03
2023-02-06T20:36:29.980Z,102615.00
2023-02-06T20:38:59.827Z,102619.28
2023-02-06T20:41:31.082Z,102616.50
2023-02-06T20:43:59.768Z,102621.69
2023-02-06T20:46:29.687Z,102630.41
2023-02-06T20:49:00.986Z,102643.31
2023-02-06T20:51:28.646Z,102632.72
2023-02-06T20:53:55.351Z,102629.00
2023-02-06T20:56:23.000Z,102624.53
2023-02-06T20:58:51.032Z,102626.28
2023-02-06T21:01:23.635Z,102620.09
2023-02-06T21:03:52.113Z,102620.91
2023-02-06T21:06:18.873Z,102631.28
2023-02-06T21:08:47.651Z,102630.41
2023-02-06T21:11:14.428Z,102639.09
2023-02-06T21:13:41.432Z,102643.44
2023-02-06T21:16:09.181Z,102645.16
2023-02-06T21:18:36.883Z,102646.91
2023-02-06T21:21:09.350Z,102650.38
2023-02-06T21:23:37.572Z,102657.31
2023-02-06T21:26:05.344Z,102655.47
2023-02-06T21:28:34.028Z,102658.94
2023-02-06T21:31:06.737Z,102651.03
2023-02-06T21:33:34.237Z,102649.13
2023-02-06T21:36:06.913Z,102642.59
2023-02-06T21:38:34.863Z,102645.22
2023-02-06T21:41:06.975Z,102652.16
2023-02-06T21:43:34.550Z,102655.53
2023-02-06T21:46:01.279Z,102646.81
2023-02-06T21:48:27.996Z,102648.50
2023-02-06T21:50:54.925Z,102644.06
2023-02-06T21:53:22.321Z,102649.31
2023-02-06T21:55:48.898Z,102650.09
2023-02-06T21:58:15.675Z,102643.94
2023-02-06T22:00:47.212Z,102656.91
2023-02-06T22:03:14.612Z,102661.06
2023-02-06T22:05:41.296Z,102659.41
2023-02-06T22:08:07.920Z,102661.16
2023-02-06T22:10:37.954Z,102668.09
2023-02-06T22:13:05.945Z,102668.91
2023-02-06T22:15:33.506Z,102661.81
2023-02-06T22:18:00.321Z,102665.34
2023-02-06T22:20:27.124Z,102672.38
2023-02-06T22:22:54.965Z,102681.19
2023-02-06T22:25:21.980Z,102675.81
2023-02-06T22:27:48.617Z,102686.25
2023-02-06T22:30:15.349Z,102684.38
2023-02-06T22:32:41.940Z,102686.06
2023-02-06T22:35:08.948Z,102675.53
2023-02-06T22:37:35.751Z,102680.69
2023-02-06T22:40:02.339Z,102680.69
2023-02-06T22:42:28.874Z,102678.94
2023-02-06T22:44:55.609Z,102674.50
2023-02-06T22:47:22.250Z,102670.94
2023-02-06T22:49:51.530Z,102684.84
2023-02-06T22:52:36.531Z,102687.44
2023-02-06T22:55:04.293Z,102678.59
2023-02-06T22:57:30.868Z,102682.78
2023-02-06T22:59:57.444Z,102682.69
2023-02-06T23:02:24.000Z,102677.41
2023-02-06T23:04:50.674Z,102680.88
2023-02-06T23:07:17.215Z,102690.41
2023-02-06T23:09:43.759Z,102680.75
2023-02-06T23:12:11.624Z,102684.22
2023-02-06T23:14:38.229Z,102679.00
2023-02-06T23:17:04.796Z,102683.38
2023-02-06T23:19:31.677Z,102673.72
2023-02-06T23:21:58.205Z,102677.25
2023-02-06T23:24:24.849Z,102689.50
2023-02-06T23:26:53.708Z,102685.13
2023-02-06T23:29:21.869Z,102690.38
2023-02-06T23:31:48.881Z,102699.91
2023-02-06T23:34:17.503Z,102691.16
2023-02-06T23:36:44.788Z,102688.50
2023-02-06T23:39:12.063Z,102686.66
2023-02-06T23:41:38.868Z,102692.69
2023-02-06T23:44:07.154Z,102686.47
2023-02-06T23:46:36.426Z,102693.41
2023-02-06T23:49:03.336Z,102689.00
2023-02-06T23:51:30.004Z,102685.38
2023-02-06T23:53:56.631Z,102678.19
2023-02-06T23:56:26.822Z,102684.28
2023-02-06T23:58:54.881Z,102689.47
